createdAt,value
2023-07-27T00:00:20.190Z,67.22
2023-07-27T00:02:47.144Z,67.25
2023-07-27T00:05:15.462Z,67.24
2023-07-27T00:07:42.300Z,67.34
2023-07-27T00:10:09.139Z,67.15
2023-07-27T00:12:36.207Z,67.07
2023-07-27T00:15:03.199Z,67.04
2023-07-27T00:17:30.072Z,67.25
2023-07-27T00:19:56.872Z,67.27
2023-07-27T00:22:23.667Z,67.33
2023-07-27T00:24:50.453Z,67.23
2023-07-27T00:27:17.550Z,67.41
2023-07-27T00:29:45.787Z,67.27
2023-07-27T00:32:12.721Z,67.16
2023-07-27T00:34:39.895Z,67.14
2023-07-27T00:37:06.985Z,67.46
2023-07-27T00:39:34.922Z,67.50
2023-07-27T00:42:01.773Z,67.56
2023-07-27T00:44:28.496Z,67.34
2023-07-27T00:46:55.390Z,67.54
2023-07-27T00:49:22.864Z,67.52
2023-07-27T00:51:50.030Z,67.51
2023-07-27T00:54:18.063Z,67.72
2023-07-27T00:56:44.976Z,67.55
2023-07-27T00:59:11.980Z,67.42
2023-07-27T01:01:38.968Z,67.21
2023-07-27T01:04:05.915Z,67.09
2023-07-27T01:06:33.076Z,67.24
2023-07-27T01:09:01.684Z,67.24
2023-07-27T01:11:52.890Z,67.58
2023-07-27T01:14:19.914Z,67.47
2023-07-27T01:17:00.394Z,67.79
2023-07-27T01:19:35.935Z,67.59
2023-07-27T01:22:35.282Z,67.76
2023-07-27T01:25:35.980Z,67.88
2023-07-27T01:28:20.995Z,68.28
2023-07-27T01:30:55.183Z,68.47
2023-07-27T01:33:44.665Z,68.24
2023-07-27T01:36:39.367Z,68.65
2023-07-27T01:39:09.829Z,68.34
2023-07-27T01:41:38.720Z,68.36
2023-07-27T01:44:06.804Z,68.01
2023-07-27T01:46:34.801Z,68.00
2023-07-27T01:49:04.588Z,67.90
2023-07-27T01:51:33.241Z,67.89
2023-07-27T01:54:01.722Z,68.02
2023-07-27T01:56:30.235Z,68.25
2023-07-27T01:58:59.023Z,68.01
2023-07-27T02:01:26.176Z,68.17
2023-07-27T02:03:54.569Z,68.15
2023-07-27T02:06:21.381Z,68.33
2023-07-27T02:08:48.148Z,67.95
2023-07-27T02:11:18.530Z,67.79
2023-07-27T02:14:04.677Z,67.54
2023-07-27T02:16:37.973Z,67.59
2023-07-27T02:19:07.228Z,67.89
2023-07-27T02:21:36.391Z,67.91
2023-07-27T02:24:04.927Z,68.02
2023-07-27T02:26:32.644Z,68.54
2023-07-27T02:28:59.609Z,68.41
2023-07-27T02:31:27.458Z,68.75
2023-07-27T02:33:54.391Z,68.61
2023-07-27T02:36:21.371Z,68.55
2023-07-27T02:38:48.389Z,68.51
2023-07-27T02:41:15.236Z,68.25
2023-07-27T02:43:42.764Z,68.12
2023-07-27T02:46:09.867Z,68.20
2023-07-27T02:48:36.986Z,67.99
2023-07-27T02:51:04.073Z,67.62
2023-07-27T02:53:30.955Z,67.58
2023-07-27T02:56:02.845Z,67.41
2023-07-27T02:58:38.138Z,67.61
2023-07-27T03:01:05.493Z,67.90
2023-07-27T03:03:33.976Z,67.78
2023-07-27T03:06:08.007Z,68.34
2023-07-27T03:08:36.710Z,68.32
2023-07-27T03:11:05.733Z,68.48
2023-07-27T03:13:33.484Z,68.68
2023-07-27T03:16:03.836Z,68.78
2023-07-27T03:18:31.261Z,68.93
2023-07-27T03:20:58.053Z,69.09
2023-07-27T03:23:24.918Z,69.66
2023-07-27T03:25:51.794Z,69.43
2023-07-27T03:28:18.566Z,70.00
2023-07-27T03:30:45.379Z,69.97
2023-07-27T03:33:12.339Z,70.01
2023-07-27T03:35:39.209Z,69.72
2023-07-27T03:38:06.102Z,69.99
2023-07-27T03:40:32.958Z,69.63
2023-07-27T03:42:59.840Z,69.72
2023-07-27T03:45:27.317Z,69.66
2023-07-27T03:47:54.581Z,70.19
2023-07-27T03:50:22.161Z,70.40
2023-07-27T03:52:49.023Z,70.17
2023-07-27T03:55:19.625Z,70.41
2023-07-27T03:57:48.602Z,70.38
2023-07-27T04:00:15.474Z,70.06
2023-07-27T04:02:42.338Z,69.91
2023-07-27T04:05:09.455Z,70.05
2023-07-27T04:07:36.273Z,70.64
2023-07-27T04:10:03.530Z,70.12
2023-07-27T04:12:30.293Z,69.74
2023-07-27T04:14:57.202Z,70.05
2023-07-27T04:17:24.241Z,70.11
2023-07-27T04:19:51.225Z,69.68
2023-07-27T04:22:17.994Z,69.78
2023-07-27T04:24:46.580Z,69.71
2023-07-27T04:27:13.716Z,70.02
2023-07-27T04:29:40.661Z,69.61
2023-07-27T04:32:08.667Z,69.52
2023-07-27T04:34:35.855Z,69.97
2023-07-27T04:37:03.507Z,69.65
2023-07-27T04:39:30.331Z,69.47
2023-07-27T04:41:57.176Z,69.59
2023-07-27T04:44:23.945Z,69.66
2023-07-27T04:46:50.829Z,69.59
2023-07-27T04:49:17.869Z,69.53
2023-07-27T04:51:44.803Z,69.87
2023-07-27T04:54:11.979Z,69.89
2023-07-27T04:56:38.869Z,69.64
2023-07-27T04:59:05.941Z,69.77
2023-07-27T05:01:33.016Z,69.71
2023-07-27T05:03:59.909Z,69.36
2023-07-27T05:06:26.749Z,69.33
2023-07-27T05:08:53.597Z,69.03
2023-07-27T05:11:20.447Z,69.27
2023-07-27T05:13:47.218Z,68.68
2023-07-27T05:16:14.256Z,68.70
2023-07-27T05:18:41.185Z,68.73
2023-07-27T05:21:07.999Z,68.50
2023-07-27T05:23:34.830Z,68.55
2023-07-27T05:26:01.775Z,68.67
2023-07-27T05:28:28.572Z,69.22
2023-07-27T05:30:55.397Z,69.39
2023-07-27T05:33:22.703Z,68.82
2023-07-27T05:35:49.978Z,68.60
2023-07-27T05:38:18.163Z,68.35
2023-07-27T05:40:45.121Z,68.25
2023-07-27T05:43:11.904Z,68.66
2023-07-27T05:45:39.940Z,68.52
2023-07-27T05:48:07.864Z,68.49
2023-07-27T05:50:37.458Z,68.51
2023-07-27T05:53:06.291Z,68.54
2023-07-27T05:55:33.145Z,68.67
2023-07-27T05:58:10.345Z,68.58
2023-07-27T06:00:45.815Z,68.04
2023-07-27T06:03:12.636Z,68.06
2023-07-27T06:05:45.757Z,68.85
2023-07-27T06:08:12.798Z,68.00
2023-07-27T06:10:39.888Z,67.73
2023-07-27T06:13:06.753Z,67.75
2023-07-27T06:15:33.530Z,67.42
2023-07-27T06:18:00.455Z,67.25
2023-07-27T06:20:27.233Z,66.95
2023-07-27T06:22:54.087Z,66.95
2023-07-27T06:25:20.970Z,66.73
2023-07-27T06:27:47.769Z,66.29
2023-07-27T06:30:16.467Z,66.04
2023-07-27T06:32:43.510Z,65.86
2023-07-27T06:35:10.546Z,65.65
2023-07-27T06:37:37.447Z,65.57
2023-07-27T06:40:06.526Z,65.60
2023-07-27T06:42:34.123Z,65.64
2023-07-27T06:45:01.044Z,65.08
2023-07-27T06:47:27.931Z,64.93
2023-07-27T06:49:54.734Z,64.29
2023-07-27T06:52:21.508Z,64.09
2023-07-27T06:54:48.354Z,64.02
2023-07-27T06:57:15.115Z,63.78
2023-07-27T06:59:44.017Z,63.67
2023-07-27T07:02:10.815Z,63.73
2023-07-27T07:04:38.977Z,63.41
2023-07-27T07:07:08.127Z,63.97
2023-07-27T07:09:36.857Z,63.36
2023-07-27T07:12:05.098Z,63.45
2023-07-27T07:14:32.823Z,63.35
2023-07-27T07:17:03.076Z,63.61
2023-07-27T07:19:30.027Z,63.80
2023-07-27T07:21:56.939Z,63.47
2023-07-27T07:24:23.764Z,63.23
2023-07-27T07:26:50.608Z,63.43
2023-07-27T07:29:17.418Z,62.47
2023-07-27T07:31:44.254Z,62.12
2023-07-27T07:34:11.092Z,61.50
2023-07-27T07:36:37.955Z,61.48
2023-07-27T07:39:04.831Z,61.12
2023-07-27T07:41:32.552Z,60.93
2023-07-27T07:43:59.426Z,60.88
2023-07-27T07:46:26.185Z,60.39
2023-07-27T07:48:53.055Z,60.35
2023-07-27T07:51:19.854Z,60.21
2023-07-27T07:53:46.674Z,59.96
2023-07-27T07:56:17.785Z,59.74
2023-07-27T07:58:48.242Z,59.69
2023-07-27T08:01:15.128Z,59.31
2023-07-27T08:03:42.062Z,60.08
2023-07-27T08:06:12.229Z,59.64
2023-07-27T08:08:39.134Z,59.20
2023-07-27T08:11:06.067Z,58.80
2023-07-27T08:13:33.247Z,58.29
2023-07-27T08:16:00.055Z,58.63
2023-07-27T08:18:28.878Z,59.30
2023-07-27T08:21:06.745Z,59.44
2023-07-27T08:23:34.041Z,60.33
2023-07-27T08:26:02.007Z,60.40
2023-07-27T08:28:29.138Z,60.69
2023-07-27T08:30:56.038Z,60.49
2023-07-27T08:33:22.974Z,60.12
2023-07-27T08:35:49.925Z,60.33
2023-07-27T08:38:17.056Z,59.97
2023-07-27T08:40:57.270Z,60.26
2023-07-27T08:43:25.128Z,59.50
2023-07-27T08:45:52.850Z,59.19
2023-07-27T08:48:20.070Z,58.72
2023-07-27T08:50:49.136Z,58.98
2023-07-27T08:53:17.383Z,58.76
2023-07-27T08:55:44.260Z,58.79
2023-07-27T08:58:12.128Z,58.87
2023-07-27T09:00:42.135Z,58.68
2023-07-27T09:03:09.095Z,58.88
2023-07-27T09:05:52.738Z,58.60
2023-07-27T09:08:19.677Z,59.10
2023-07-27T09:10:46.938Z,58.74
2023-07-27T09:13:13.939Z,58.10
2023-07-27T09:15:45.455Z,58.24
2023-07-27T09:18:14.896Z,58.74
2023-07-27T09:20:42.501Z,58.48
2023-07-27T09:23:09.807Z,58.22
2023-07-27T09:25:41.294Z,58.20
2023-07-27T09:28:08.005Z,57.85
2023-07-27T09:30:36.611Z,57.41
2023-07-27T09:33:06.784Z,57.80
2023-07-27T09:35:36.458Z,57.30
2023-07-27T09:38:03.573Z,57.23
2023-07-27T09:40:33.504Z,57.68
2023-07-27T09:43:07.227Z,57.97
2023-07-27T09:45:38.921Z,58.39
2023-07-27T09:48:06.503Z,58.48
2023-07-27T09:50:36.042Z,59.51
2023-07-27T09:53:04.914Z,59.61
2023-07-27T09:55:33.835Z,60.64
2023-07-27T09:58:01.855Z,60.64
2023-07-27T10:00:28.750Z,60.75
2023-07-27T10:03:05.222Z,61.16
2023-07-27T10:05:44.178Z,60.92
2023-07-27T10:08:11.602Z,61.04
2023-07-27T10:10:43.559Z,61.13
2023-07-27T10:13:14.844Z,61.36
2023-07-27T10:15:44.128Z,60.91
2023-07-27T10:18:15.798Z,60.79
2023-07-27T10:20:42.773Z,61.04
2023-07-27T10:23:14.689Z,61.23
2023-07-27T10:25:56.924Z,61.16
2023-07-27T10:28:42.003Z,61.37
2023-07-27T10:31:15.025Z,61.47
2023-07-27T10:33:49.383Z,61.92
2023-07-27T10:36:17.036Z,62.05
2023-07-27T10:38:54.360Z,61.88
2023-07-27T10:41:27.581Z,61.09
2023-07-27T10:44:09.286Z,60.89
2023-07-27T10:46:42.727Z,61.28
2023-07-27T10:49:11.187Z,60.82
2023-07-27T10:51:39.313Z,59.96
2023-07-27T10:54:06.515Z,59.12
2023-07-27T10:56:34.175Z,58.28
2023-07-27T10:59:02.270Z,57.62
2023-07-27T11:01:34.390Z,57.03
2023-07-27T11:04:01.369Z,56.96
2023-07-27T11:06:29.424Z,57.47
2023-07-27T11:08:57.423Z,57.67
2023-07-27T11:11:25.394Z,57.24
2023-07-27T11:13:52.505Z,57.34
2023-07-27T11:16:19.651Z,57.39
2023-07-27T11:18:46.591Z,57.02
2023-07-27T11:21:13.554Z,57.35
2023-07-27T11:23:48.187Z,57.59
2023-07-27T11:26:15.405Z,57.42
2023-07-27T11:28:42.468Z,57.39
2023-07-27T11:31:09.643Z,57.26
2023-07-27T11:33:39.511Z,57.16
2023-07-27T11:36:06.273Z,57.13
2023-07-27T11:38:33.140Z,56.61
2023-07-27T11:41:29.055Z,56.35
2023-07-27T11:43:52.165Z,56.62
2023-07-27T11:46:21.105Z,56.42
2023-07-27T11:49:04.823Z,56.53
2023-07-27T11:51:34.571Z,56.90
2023-07-27T11:54:01.525Z,56.95
2023-07-27T11:56:28.373Z,58.04
2023-07-27T11:58:55.439Z,58.37
2023-07-27T12:01:23.878Z,58.31
2023-07-27T12:03:50.796Z,58.82
2023-07-27T12:06:26.174Z,59.43
2023-07-27T12:08:53.088Z,59.22
2023-07-27T12:18:52.956Z,60.68
2023-07-27T12:34:08.600Z,61.51
2023-07-27T12:36:35.467Z,61.99
2023-07-27T12:39:02.265Z,61.52
2023-07-27T12:41:29.093Z,61.82
2023-07-27T12:43:57.931Z,62.48
2023-07-27T12:46:24.982Z,61.97
2023-07-27T12:48:51.828Z,62.31
2023-07-27T12:51:18.551Z,63.18
2023-07-27T12:53:45.348Z,63.56
2023-07-27T12:56:13.113Z,64.10
2023-07-27T12:58:39.971Z,64.88
2023-07-27T13:01:06.753Z,65.25
2023-07-27T13:03:35.237Z,65.22
2023-07-27T13:06:03.207Z,64.76
2023-07-27T13:08:30.334Z,65.12
2023-07-27T13:10:57.210Z,64.83
2023-07-27T13:13:24.010Z,64.50
2023-07-27T13:15:50.838Z,64.31
2023-07-27T13:18:17.621Z,64.49
2023-07-27T13:20:44.493Z,64.50
2023-07-27T13:23:11.269Z,64.38
2023-07-27T13:25:38.498Z,64.13
2023-07-27T13:28:05.668Z,63.81
2023-07-27T13:30:34.320Z,63.09
2023-07-27T13:33:02.443Z,62.72
2023-07-27T13:35:29.500Z,61.92
2023-07-27T13:37:56.697Z,61.31
2023-07-27T13:40:23.512Z,61.04
2023-07-27T13:42:50.306Z,59.96
2023-07-27T13:45:17.098Z,59.94
2023-07-27T13:47:57.390Z,59.06
2023-07-27T13:50:30.832Z,58.74
2023-07-27T13:52:57.648Z,58.20
2023-07-27T13:55:24.800Z,57.62
2023-07-27T13:57:51.677Z,57.12
2023-07-27T14:00:18.718Z,56.74
2023-07-27T14:02:45.673Z,57.01
2023-07-27T14:05:14.381Z,57.34
2023-07-27T14:07:41.205Z,56.70
2023-07-27T14:10:09.575Z,56.92
2023-07-27T14:12:36.343Z,56.41
2023-07-27T14:15:03.379Z,57.00
2023-07-27T14:17:30.122Z,55.88
2023-07-27T14:19:58.096Z,55.83
2023-07-27T14:22:24.849Z,55.42
2023-07-27T14:24:52.554Z,55.71
2023-07-27T14:27:19.359Z,55.94
2023-07-27T14:29:46.083Z,55.62
2023-07-27T14:32:15.274Z,55.30
2023-07-27T14:34:42.139Z,55.51
2023-07-27T14:37:09.032Z,55.54
2023-07-27T14:42:06.202Z,54.45
2023-07-27T14:44:32.954Z,54.18
2023-07-27T14:47:01.109Z,54.01
2023-07-27T14:49:28.413Z,53.33
2023-07-27T14:52:06.585Z,53.32
2023-07-27T14:54:33.437Z,52.54
2023-07-27T14:57:02.357Z,52.52
2023-07-27T14:59:30.153Z,51.64
2023-07-27T15:02:15.652Z,51.95
2023-07-27T15:07:13.399Z,51.47
2023-07-27T15:09:40.164Z,51.11
2023-07-27T15:12:08.506Z,51.73
2023-07-27T15:14:35.343Z,51.76
2023-07-27T15:17:02.129Z,52.04
2023-07-27T15:19:28.985Z,51.69
2023-07-27T15:21:55.870Z,51.84
2023-07-27T15:24:23.534Z,52.07
2023-07-27T15:26:52.174Z,52.61
2023-07-27T15:29:19.123Z,52.72
2023-07-27T15:31:45.977Z,52.47
2023-07-27T15:34:12.785Z,52.75
2023-07-27T15:36:39.587Z,53.37
2023-07-27T15:39:06.488Z,52.96
2023-07-27T15:41:33.329Z,52.75
2023-07-27T15:44:00.204Z,52.44
2023-07-27T15:46:27.065Z,52.29
2023-07-27T15:48:53.844Z,52.87
2023-07-27T15:51:21.566Z,52.34
2023-07-27T15:53:49.126Z,52.49
2023-07-27T15:56:16.297Z,51.80
2023-07-27T15:58:43.189Z,51.58
2023-07-27T16:01:10.276Z,51.72
2023-07-27T16:03:37.318Z,51.06
2023-07-27T16:06:05.643Z,51.59
2023-07-27T16:08:32.412Z,51.37
2023-07-27T16:10:59.243Z,51.70
2023-07-27T16:13:26.018Z,51.42
2023-07-27T16:15:52.819Z,51.99
2023-07-27T16:18:19.665Z,52.39
2023-07-27T16:20:46.467Z,52.95
2023-07-27T16:23:14.500Z,53.17
2023-07-27T16:25:42.608Z,53.04
2023-07-27T16:28:09.482Z,53.45
2023-07-27T16:30:40.761Z,54.17
2023-07-27T16:33:07.563Z,54.24
2023-07-27T16:35:34.501Z,54.40
2023-07-27T16:38:01.449Z,54.96
2023-07-27T16:40:28.234Z,54.99
2023-07-27T16:42:54.961Z,54.28
2023-07-27T16:45:21.790Z,54.13
2023-07-27T16:47:48.669Z,54.10
2023-07-27T16:50:15.450Z,54.13
2023-07-27T16:52:42.187Z,54.38
2023-07-27T16:55:09.413Z,54.82
2023-07-27T16:57:36.225Z,55.36
2023-07-27T17:00:03.155Z,55.11
2023-07-27T17:02:30.378Z,55.49
2023-07-27T17:04:57.203Z,56.15
2023-07-27T17:07:24.090Z,56.73
2023-07-27T17:09:51.286Z,57.21
2023-07-27T17:12:18.229Z,57.40
2023-07-27T17:14:46.047Z,57.70
2023-07-27T17:17:12.913Z,58.02
2023-07-27T17:19:39.678Z,58.35
2023-07-27T17:22:06.631Z,59.21
2023-07-27T17:24:33.405Z,59.31
2023-07-27T17:27:00.166Z,59.29
2023-07-27T17:29:26.940Z,59.25
2023-07-27T17:31:53.770Z,59.45
2023-07-27T17:34:20.569Z,59.34
2023-07-27T17:36:47.407Z,58.91
2023-07-27T17:39:14.274Z,60.28
2023-07-27T17:41:41.061Z,60.56
2023-07-27T17:44:08.038Z,61.24
2023-07-27T17:46:35.053Z,60.44
2023-07-27T17:49:01.860Z,60.76
2023-07-27T17:51:28.649Z,61.09
2023-07-27T17:53:55.457Z,61.16
2023-07-27T17:56:22.297Z,60.67
2023-07-27T17:58:49.089Z,60.22
2023-07-27T18:01:15.933Z,59.65
2023-07-27T18:03:43.160Z,59.26
2023-07-27T18:06:11.231Z,58.25
2023-07-27T18:08:38.872Z,58.33
2023-07-27T18:11:13.409Z,57.72
2023-07-27T18:13:41.916Z,57.59
2023-07-27T18:16:13.921Z,56.67
2023-07-27T18:18:41.502Z,57.10
2023-07-27T18:21:14.137Z,57.57
2023-07-27T18:23:40.842Z,58.37
2023-07-27T18:26:07.816Z,58.45
2023-07-27T18:28:34.746Z,58.91
2023-07-27T18:31:05.815Z,57.65
2023-07-27T18:33:33.752Z,56.95
2023-07-27T18:36:11.856Z,57.32
2023-07-27T18:38:40.412Z,56.70
2023-07-27T18:41:07.619Z,56.35
2023-07-27T18:43:34.829Z,54.81
2023-07-27T18:46:01.710Z,55.90
2023-07-27T18:48:29.563Z,55.58
2023-07-27T18:50:56.961Z,56.15
2023-07-27T18:53:23.707Z,55.95
2023-07-27T18:55:51.415Z,56.00
2023-07-27T18:58:18.512Z,55.99
2023-07-27T19:00:50.102Z,56.11
2023-07-27T19:03:17.218Z,57.53
2023-07-27T19:05:43.952Z,58.48
2023-07-27T19:08:10.737Z,60.29
2023-07-27T19:10:37.529Z,61.05
2023-07-27T19:13:04.284Z,61.36
2023-07-27T19:15:31.108Z,61.01
2023-07-27T19:17:57.963Z,61.93
2023-07-27T19:20:24.757Z,61.82
2023-07-27T19:22:52.283Z,61.56
2023-07-27T19:25:19.265Z,61.93
2023-07-27T19:27:47.002Z,62.80
2023-07-27T19:30:15.094Z,63.22
2023-07-27T19:32:42.895Z,62.81
2023-07-27T19:35:10.689Z,62.77
2023-07-27T19:37:37.592Z,63.56
2023-07-27T19:40:04.715Z,63.91
2023-07-27T19:42:31.636Z,63.75
2023-07-27T19:44:59.394Z,64.07
2023-07-27T19:47:26.227Z,64.57
2023-07-27T19:50:04.611Z,64.40
2023-07-27T19:52:32.593Z,64.88
2023-07-27T19:54:59.377Z,65.33
2023-07-27T19:57:26.170Z,65.06
2023-07-27T19:59:56.304Z,65.31
2023-07-27T20:02:24.330Z,65.17
2023-07-27T20:04:52.143Z,65.61
2023-07-27T20:07:22.872Z,65.71
2023-07-27T20:09:51.361Z,65.54
2023-07-27T20:12:21.251Z,65.82
2023-07-27T20:14:48.446Z,66.13
2023-07-27T20:17:17.529Z,66.42
2023-07-27T20:19:44.416Z,66.88
2023-07-27T20:22:11.159Z,66.53
2023-07-27T20:24:39.077Z,66.96
2023-07-27T20:27:07.199Z,67.38
2023-07-27T20:29:34.008Z,67.15
2023-07-27T20:32:00.820Z,67.18
2023-07-27T20:34:27.566Z,66.94
2023-07-27T20:36:54.482Z,67.06
2023-07-27T20:39:23.975Z,66.53
2023-07-27T20:41:54.856Z,66.02
2023-07-27T20:44:22.299Z,65.33
2023-07-27T20:46:49.425Z,65.25
2023-07-27T20:49:16.443Z,65.55
2023-07-27T20:51:43.216Z,66.25
2023-07-27T20:54:10.334Z,66.62
2023-07-27T20:56:37.516Z,66.82
2023-07-27T20:59:04.605Z,66.37
2023-07-27T21:01:31.581Z,66.46
2023-07-27T21:03:58.586Z,66.23
2023-07-27T21:06:27.381Z,60.93
2023-07-27T21:08:54.958Z,56.72
2023-07-27T21:11:21.931Z,54.14
2023-07-27T21:13:48.711Z,52.27
2023-07-27T21:16:15.497Z,53.34
2023-07-27T21:18:43.153Z,52.40
2023-07-27T21:21:19.026Z,51.80
2023-07-27T21:23:47.201Z,51.90
2023-07-27T21:26:14.733Z,51.02
2023-07-27T21:28:41.582Z,51.79
2023-07-27T21:31:08.525Z,51.55
2023-07-27T21:33:35.448Z,51.64
2023-07-27T21:36:02.368Z,51.78
2023-07-27T21:38:29.179Z,51.55
2023-07-27T21:40:57.520Z,52.18
2023-07-27T21:43:25.316Z,52.26
2023-07-27T21:45:54.557Z,52.06
2023-07-27T21:48:22.401Z,52.38
2023-07-27T21:50:50.666Z,52.60
2023-07-27T21:53:18.210Z,52.46
2023-07-27T21:55:45.606Z,52.57
2023-07-27T21:58:12.891Z,52.77
2023-07-27T22:00:40.025Z,52.54
2023-07-27T22:03:07.032Z,53.68
2023-07-27T22:05:33.868Z,53.49
2023-07-27T22:08:00.654Z,54.90
2023-07-27T22:10:27.394Z,54.95
2023-07-27T22:12:54.170Z,54.90
2023-07-27T22:15:21.022Z,54.92
2023-07-27T22:17:49.617Z,55.76
2023-07-27T22:20:17.120Z,54.57
2023-07-27T22:22:43.968Z,54.45
2023-07-27T22:25:11.445Z,55.53
2023-07-27T22:27:38.486Z,55.93
2023-07-27T22:30:06.191Z,54.66
2023-07-27T22:32:33.142Z,53.91
2023-07-27T22:35:00.770Z,56.05
2023-07-27T22:37:27.674Z,56.89
2023-07-27T22:39:54.660Z,54.36
2023-07-27T22:42:21.410Z,55.96
2023-07-27T22:44:48.389Z,57.06
2023-07-27T22:47:15.496Z,56.63
2023-07-27T22:49:42.395Z,56.74
2023-07-27T22:52:09.233Z,57.51
2023-07-27T22:54:36.134Z,58.53
2023-07-27T22:57:02.928Z,58.78
2023-07-27T22:59:29.824Z,58.84
2023-07-27T23:01:59.005Z,57.92
2023-07-27T23:04:26.753Z,57.97
2023-07-27T23:06:55.669Z,57.75
2023-07-27T23:09:22.620Z,58.23
2023-07-27T23:11:49.429Z,58.16
2023-07-27T23:14:16.220Z,59.50
2023-07-27T23:16:43.038Z,60.48
2023-07-27T23:19:09.834Z,60.91
2023-07-27T23:21:36.656Z,60.32
2023-07-27T23:24:03.562Z,60.72
2023-07-27T23:26:30.447Z,60.61
2023-07-27T23:28:57.762Z,60.61
2023-07-27T23:31:24.519Z,60.00
2023-07-27T23:33:51.361Z,60.02
2023-07-27T23:36:18.124Z,59.82
2023-07-27T23:38:44.891Z,58.73
2023-07-27T23:41:11.627Z,58.61
2023-07-27T23:43:38.547Z,59.04
2023-07-27T23:46:05.365Z,58.72
2023-07-27T23:48:32.289Z,58.33
2023-07-27T23:50:59.130Z,58.36
2023-07-27T23:53:25.990Z,58.33
2023-07-27T23:55:52.774Z,58.19
2023-07-27T23:58:19.631Z,58.00
